sensor_id;sensor_type;location;lat;lon;timestamp;temperature;humidity
13354;DHT22;6746;50.892;4.064;2023-04-24T00:02:13;9.70;99.90
13354;DHT22;6746;50.892;4.064;2023-04-24T00:05:01;9.70;99.90
13354;DHT22;6746;50.892;4.064;2023-04-24T00:07:50;9.70;99.90
13354;DHT22;6746;50.892;4.064;2023-04-24T00:10:40;9.70;99.90
13354;DHT22;6746;50.892;4.064;2023-04-24T00:13:29;9.70;99.90
13354;DHT22;6746;50.892;4.064;2023-04-24T00:16:13;9.70;99.90
13354;DHT22;6746;50.892;4.064;2023-04-24T00:18:51;9.60;99.90
13354;DHT22;6746;50.892;4.064;2023-04-24T00:21:34;9.70;99.90
13354;DHT22;6746;50.892;4.064;2023-04-24T00:24:12;9.70;99.90
13354;DHT22;6746;50.892;4.064;2023-04-24T00:26:55;9.70;99.90
13354;DHT22;6746;50.892;4.064;2023-04-24T00:29:33;9.70;99.90
13354;DHT22;6746;50.892;4.064;2023-04-24T00:32:11;9.70;99.90
13354;DHT22;6746;50.892;4.064;2023-04-24T00:34:50;9.70;99.90
13354;DHT22;6746;50.892;4.064;2023-04-24T00:37:31;9.70;99.90
13354;DHT22;6746;50.892;4.064;2023-04-24T00:40:09;9.70;99.90
13354;DHT22;6746;50.892;4.064;2023-04-24T00:42:57;9.70;99.90
13354;DHT22;6746;50.892;4.064;2023-04-24T00:45:45;9.60;99.90
13354;DHT22;6746;50.892;4.064;2023-04-24T00:48:33;9.60;99.90
13354;DHT22;6746;50.892;4.064;2023-04-24T00:51:21;9.60;99.90
13354;DHT22;6746;50.892;4.064;2023-04-24T00:54:00;9.50;99.90
13354;DHT22;6746;50.892;4.064;2023-04-24T00:56:38;9.50;99.90
13354;DHT22;6746;50.892;4.064;2023-04-24T00:59:16;9.50;99.90
13354;DHT22;6746;50.892;4.064;2023-04-24T01:01:55;9.50;99.90
13354;DHT22;6746;50.892;4.064;2023-04-24T01:04:35;9.40;99.90
13354;DHT22;6746;50.892;4.064;2023-04-24T01:07:13;9.40;99.90
13354;DHT22;6746;50.892;4.064;2023-04-24T01:09:51;9.40;99.90
13354;DHT22;6746;50.892;4.064;2023-04-24T01:12:30;9.40;99.90
13354;DHT22;6746;50.892;4.064;2023-04-24T01:15:11;9.40;99.90
13354;DHT22;6746;50.892;4.064;2023-04-24T01:17:49;9.40;99.90
13354;DHT22;6746;50.892;4.064;2023-04-24T01:20:30;9.40;99.90
13354;DHT22;6746;50.892;4.064;2023-04-24T01:23:08;9.40;99.90
13354;DHT22;6746;50.892;4.064;2023-04-24T01:25:56;9.40;99.90
13354;DHT22;6746;50.892;4.064;2023-04-24T01:28:40;9.40;99.90
13354;DHT22;6746;50.892;4.064;2023-04-24T01:31:18;9.30;99.90
13354;DHT22;6746;50.892;4.064;2023-04-24T01:33:59;9.30;99.90
13354;DHT22;6746;50.892;4.064;2023-04-24T01:36:37;9.30;99.90
13354;DHT22;6746;50.892;4.064;2023-04-24T01:39:15;9.30;99.90
13354;DHT22;6746;50.892;4.064;2023-04-24T01:41:54;9.20;99.90
13354;DHT22;6746;50.892;4.064;2023-04-24T01:44:41;9.20;99.90
13354;DHT22;6746;50.892;4.064;2023-04-24T01:47:25;9.20;99.90
13354;DHT22;6746;50.892;4.064;2023-04-24T01:50:03;9.20;99.90
13354;DHT22;6746;50.892;4.064;2023-04-24T01:52:51;9.20;99.90
13354;DHT22;6746;50.892;4.064;2023-04-24T01:55:40;7.90;99.90
13354;DHT22;6746;50.892;4.064;2023-04-24T01:58:28;9.20;99.90
13354;DHT22;6746;50.892;4.064;2023-04-24T02:01:06;9.20;99.90
13354;DHT22;6746;50.892;4.064;2023-04-24T02:03:44;9.20;99.90
13354;DHT22;6746;50.892;4.064;2023-04-24T02:06:23;9.20;99.90
13354;DHT22;6746;50.892;4.064;2023-04-24T02:09:01;9.20;99.90
13354;DHT22;6746;50.892;4.064;2023-04-24T02:11:49;9.20;99.90
13354;DHT22;6746;50.892;4.064;2023-04-24T02:14:30;9.20;99.90
13354;DHT22;6746;50.892;4.064;2023-04-24T02:17:08;9.20;99.90
13354;DHT22;6746;50.892;4.064;2023-04-24T02:19:46;9.20;99.90
13354;DHT22;6746;50.892;4.064;2023-04-24T02:22:24;9.20;99.90
13354;DHT22;6746;50.892;4.064;2023-04-24T02:25:03;9.20;99.90
13354;DHT22;6746;50.892;4.064;2023-04-24T02:27:41;9.20;99.90
13354;DHT22;6746;50.892;4.064;2023-04-24T02:30:24;9.20;99.90
13354;DHT22;6746;50.892;4.064;2023-04-24T02:33:02;9.20;99.90
13354;DHT22;6746;50.892;4.064;2023-04-24T02:35:43;9.10;99.90
13354;DHT22;6746;50.892;4.064;2023-04-24T02:38:21;9.10;99.90
13354;DHT22;6746;50.892;4.064;2023-04-24T02:40:59;9.10;99.90
13354;DHT22;6746;50.892;4.064;2023-04-24T02:43:38;9.10;99.90
13354;DHT22;6746;50.892;4.064;2023-04-24T02:46:16;9.10;99.90
13354;DHT22;6746;50.892;4.064;2023-04-24T02:48:54;9.10;99.90
13354;DHT22;6746;50.892;4.064;2023-04-24T02:51:37;9.00;99.90
13354;DHT22;6746;50.892;4.064;2023-04-24T02:54:16;9.00;99.90
13354;DHT22;6746;50.892;4.064;2023-04-24T02:57:03;9.00;99.90
13354;DHT22;6746;50.892;4.064;2023-04-24T02:59:51;9.00;99.90
13354;DHT22;6746;50.892;4.064;2023-04-24T03:02:40;9.00;99.90
13354;DHT22;6746;50.892;4.064;2023-04-24T03:05:23;9.00;99.90
13354;DHT22;6746;50.892;4.064;2023-04-24T03:08:02;9.00;99.90
13354;DHT22;6746;50.892;4.064;2023-04-24T03:10:50;9.00;99.90
13354;DHT22;6746;50.892;4.064;2023-04-24T03:13:38;9.00;99.90
13354;DHT22;6746;50.892;4.064;2023-04-24T03:16:26;9.00;99.90
13354;DHT22;6746;50.892;4.064;2023-04-24T03:19:14;9.00;99.90
13354;DHT22;6746;50.892;4.064;2023-04-24T03:21:58;9.00;99.90
13354;DHT22;6746;50.892;4.064;2023-04-24T03:24:36;9.00;99.90
13354;DHT22;6746;50.892;4.064;2023-04-24T03:27:24;9.00;99.90
13354;DHT22;6746;50.892;4.064;2023-04-24T03:30:03;9.00;99.90
13354;DHT22;6746;50.892;4.064;2023-04-24T03:32:41;9.00;99.90
13354;DHT22;6746;50.892;4.064;2023-04-24T03:35:21;9.00;99.90
13354;DHT22;6746;50.892;4.064;2023-04-24T03:38:00;9.00;99.90
13354;DHT22;6746;50.892;4.064;2023-04-24T03:40:48;9.00;99.90
13354;DHT22;6746;50.892;4.064;2023-04-24T03:43:36;9.00;99.90
13354;DHT22;6746;50.892;4.064;2023-04-24T03:46:24;9.00;99.90
13354;DHT22;6746;50.892;4.064;2023-04-24T03:49:05;9.00;99.90
13354;DHT22;6746;50.892;4.064;2023-04-24T03:51:44;9.00;99.90
13354;DHT22;6746;50.892;4.064;2023-04-24T03:54:32;9.00;99.90
13354;DHT22;6746;50.892;4.064;2023-04-24T03:57:10;9.00;99.90
13354;DHT22;6746;50.892;4.064;2023-04-24T03:59:48;9.00;99.90
13354;DHT22;6746;50.892;4.064;2023-04-24T04:02:26;9.00;99.90
13354;DHT22;6746;50.892;4.064;2023-04-24T04:05:05;9.00;99.90
13354;DHT22;6746;50.892;4.064;2023-04-24T04:07:46;9.00;99.90
13354;DHT22;6746;50.892;4.064;2023-04-24T04:10:24;9.00;99.90
13354;DHT22;6746;50.892;4.064;2023-04-24T04:13:04;8.90;99.90
13354;DHT22;6746;50.892;4.064;2023-04-24T04:15:42;8.90;99.90
13354;DHT22;6746;50.892;4.064;2023-04-24T04:18:24;9.00;99.90
13354;DHT22;6746;50.892;4.064;2023-04-24T04:21:02;9.00;99.90
13354;DHT22;6746;50.892;4.064;2023-04-24T04:23:43;8.90;99.90
13354;DHT22;6746;50.892;4.064;2023-04-24T04:26:21;8.80;99.90
13354;DHT22;6746;50.892;4.064;2023-04-24T04:28:59;8.80;99.90
13354;DHT22;6746;50.892;4.064;2023-04-24T04:31:40;8.80;99.90
13354;DHT22;6746;50.892;4.064;2023-04-24T04:34:21;8.80;99.90
13354;DHT22;6746;50.892;4.064;2023-04-24T04:36:59;8.70;99.90
13354;DHT22;6746;50.892;4.064;2023-04-24T04:39:37;8.70;99.90
13354;DHT22;6746;50.892;4.064;2023-04-24T04:42:15;8.70;99.90
13354;DHT22;6746;50.892;4.064;2023-04-24T04:45:03;8.70;99.90
13354;DHT22;6746;50.892;4.064;2023-04-24T04:47:51;8.70;99.90
13354;DHT22;6746;50.892;4.064;2023-04-24T04:50:39;8.70;99.90
13354;DHT22;6746;50.892;4.064;2023-04-24T04:53:18;8.70;99.90
13354;DHT22;6746;50.892;4.064;2023-04-24T04:55:57;8.70;99.90
13354;DHT22;6746;50.892;4.064;2023-04-24T04:58:37;8.70;99.90
13354;DHT22;6746;50.892;4.064;2023-04-24T05:01:08;8.60;99.90
13354;DHT22;6746;50.892;4.064;2023-04-24T05:03:37;8.60;99.90
13354;DHT22;6746;50.892;4.064;2023-04-24T05:06:16;8.70;99.90
13354;DHT22;6746;50.892;4.064;2023-04-24T05:08:54;8.60;99.90
13354;DHT22;6746;50.892;4.064;2023-04-24T05:11:32;8.70;99.90
13354;DHT22;6746;50.892;4.064;2023-04-24T05:14:10;8.60;99.90
13354;DHT22;6746;50.892;4.064;2023-04-24T05:16:42;8.60;99.90
13354;DHT22;6746;50.892;4.064;2023-04-24T05:19:13;8.60;99.90
13354;DHT22;6746;50.892;4.064;2023-04-24T05:21:42;8.60;99.90
13354;DHT22;6746;50.892;4.064;2023-04-24T05:24:11;8.60;99.90
13354;DHT22;6746;50.892;4.064;2023-04-24T05:26:49;8.60;99.90
13354;DHT22;6746;50.892;4.064;2023-04-24T05:29:28;8.60;99.90
13354;DHT22;6746;50.892;4.064;2023-04-24T05:31:56;8.60;99.90
13354;DHT22;6746;50.892;4.064;2023-04-24T05:34:24;8.60;99.90
13354;DHT22;6746;50.892;4.064;2023-04-24T05:37:03;8.60;99.90
13354;DHT22;6746;50.892;4.064;2023-04-24T05:39:34;8.50;99.90
13354;DHT22;6746;50.892;4.064;2023-04-24T05:42:03;8.60;99.90
13354;DHT22;6746;50.892;4.064;2023-04-24T05:44:42;8.50;99.90
13354;DHT22;6746;50.892;4.064;2023-04-24T05:47:20;8.50;99.90
13354;DHT22;6746;50.892;4.064;2023-04-24T05:49:58;8.50;99.90
13354;DHT22;6746;50.892;4.064;2023-04-24T05:52:46;8.50;99.90
13354;DHT22;6746;50.892;4.064;2023-04-24T05:55:34;8.50;99.90
13354;DHT22;6746;50.892;4.064;2023-04-24T05:58:13;8.50;99.90
13354;DHT22;6746;50.892;4.064;2023-04-24T06:00:51;8.50;99.90
13354;DHT22;6746;50.892;4.064;2023-04-24T06:03:22;8.50;99.90
13354;DHT22;6746;50.892;4.064;2023-04-24T06:05:51;8.50;99.90
13354;DHT22;6746;50.892;4.064;2023-04-24T06:08:23;8.50;99.90
13354;DHT22;6746;50.892;4.064;2023-04-24T06:10:55;8.50;99.90
13354;DHT22;6746;50.892;4.064;2023-04-24T06:13:26;8.50;99.90
13354;DHT22;6746;50.892;4.064;2023-04-24T06:15:55;8.50;99.90
13354;DHT22;6746;50.892;4.064;2023-04-24T06:18:24;8.50;99.90
13354;DHT22;6746;50.892;4.064;2023-04-24T06:20:53;8.50;99.90
13354;DHT22;6746;50.892;4.064;2023-04-24T06:23:32;8.50;99.90
13354;DHT22;6746;50.892;4.064;2023-04-24T06:26:10;8.60;99.90
13354;DHT22;6746;50.892;4.064;2023-04-24T06:28:48;8.60;99.90
13354;DHT22;6746;50.892;4.064;2023-04-24T06:31:26;8.60;99.90
13354;DHT22;6746;50.892;4.064;2023-04-24T06:34:04;8.60;99.90
13354;DHT22;6746;50.892;4.064;2023-04-24T06:36:42;8.70;99.90
13354;DHT22;6746;50.892;4.064;2023-04-24T06:39:16;8.70;99.90
13354;DHT22;6746;50.892;4.064;2023-04-24T06:41:45;8.70;99.90
13354;DHT22;6746;50.892;4.064;2023-04-24T06:44:14;8.80;99.90
13354;DHT22;6746;50.892;4.064;2023-04-24T06:46:45;8.90;99.90
13354;DHT22;6746;50.892;4.064;2023-04-24T06:49:24;9.00;99.90
13354;DHT22;6746;50.892;4.064;2023-04-24T06:51:55;9.00;99.90
13354;DHT22;6746;50.892;4.064;2023-04-24T06:54:24;9.00;99.90
13354;DHT22;6746;50.892;4.064;2023-04-24T06:56:53;9.00;99.90
13354;DHT22;6746;50.892;4.064;2023-04-24T06:59:23;9.10;99.90
13354;DHT22;6746;50.892;4.064;2023-04-24T07:01:54;9.10;99.90
13354;DHT22;6746;50.892;4.064;2023-04-24T07:04:23;9.20;99.90
13354;DHT22;6746;50.892;4.064;2023-04-24T07:06:52;9.30;99.90
13354;DHT22;6746;50.892;4.064;2023-04-24T07:09:21;9.40;99.90
13354;DHT22;6746;50.892;4.064;2023-04-24T07:11:52;9.30;99.90
13354;DHT22;6746;50.892;4.064;2023-04-24T07:14:20;9.30;99.90
13354;DHT22;6746;50.892;4.064;2023-04-24T07:16:57;9.30;99.90
13354;DHT22;6746;50.892;4.064;2023-04-24T07:19:26;9.30;99.90
13354;DHT22;6746;50.892;4.064;2023-04-24T07:21:54;9.20;99.90
13354;DHT22;6746;50.892;4.064;2023-04-24T07:24:27;9.20;99.90
13354;DHT22;6746;50.892;4.064;2023-04-24T07:26:53;9.30;99.90
13354;DHT22;6746;50.892;4.064;2023-04-24T07:29:21;9.40;99.90
13354;DHT22;6746;50.892;4.064;2023-04-24T07:31:50;9.60;99.90
13354;DHT22;6746;50.892;4.064;2023-04-24T07:34:19;9.90;99.90
13354;DHT22;6746;50.892;4.064;2023-04-24T07:36:56;10.30;99.90
13354;DHT22;6746;50.892;4.064;2023-04-24T07:39:25;10.60;99.90
13354;DHT22;6746;50.892;4.064;2023-04-24T07:42:03;10.60;99.90
13354;DHT22;6746;50.892;4.064;2023-04-24T07:44:42;10.60;99.90
13354;DHT22;6746;50.892;4.064;2023-04-24T07:47:20;10.60;99.90
13354;DHT22;6746;50.892;4.064;2023-04-24T07:49:58;10.30;99.90
13354;DHT22;6746;50.892;4.064;2023-04-24T07:52:36;10.10;99.90
13354;DHT22;6746;50.892;4.064;2023-04-24T07:55:22;10.20;99.90
13354;DHT22;6746;50.892;4.064;2023-04-24T07:57:51;10.30;99.90
13354;DHT22;6746;50.892;4.064;2023-04-24T08:00:29;10.40;99.90
13354;DHT22;6746;50.892;4.064;2023-04-24T08:03:15;10.40;99.90
13354;DHT22;6746;50.892;4.064;2023-04-24T08:05:44;10.20;99.90
13354;DHT22;6746;50.892;4.064;2023-04-24T08:08:13;10.20;99.90
13354;DHT22;6746;50.892;4.064;2023-04-24T08:10:42;10.10;99.90
13354;DHT22;6746;50.892;4.064;2023-04-24T08:13:11;10.00;99.90
13354;DHT22;6746;50.892;4.064;2023-04-24T08:15:40;10.10;99.90
13354;DHT22;6746;50.892;4.064;2023-04-24T08:18:13;10.10;99.90
13354;DHT22;6746;50.892;4.064;2023-04-24T08:20:42;10.10;99.90
13354;DHT22;6746;50.892;4.064;2023-04-24T08:23:21;10.50;99.90
13354;DHT22;6746;50.892;4.064;2023-04-24T08:26:08;10.80;99.90
13354;DHT22;6746;50.892;4.064;2023-04-24T08:28:39;11.10;99.90
13354;DHT22;6746;50.892;4.064;2023-04-24T08:31:08;11.50;99.90
13354;DHT22;6746;50.892;4.064;2023-04-24T08:33:46;11.70;99.90
13354;DHT22;6746;50.892;4.064;2023-04-24T08:36:14;11.80;99.90
13354;DHT22;6746;50.892;4.064;2023-04-24T08:38:43;11.80;99.90
13354;DHT22;6746;50.892;4.064;2023-04-24T08:41:19;11.90;99.90
13354;DHT22;6746;50.892;4.064;2023-04-24T08:43:48;12.00;99.90
13354;DHT22;6746;50.892;4.064;2023-04-24T08:46:36;12.30;99.90
13354;DHT22;6746;50.892;4.064;2023-04-24T08:49:21;12.70;99.90
13354;DHT22;6746;50.892;4.064;2023-04-24T08:54:41;12.70;99.90
13354;DHT22;6746;50.892;4.064;2023-04-24T08:57:09;12.80;99.90
13354;DHT22;6746;50.892;4.064;2023-04-24T08:59:47;12.50;99.90
13354;DHT22;6746;50.892;4.064;2023-04-24T09:02:20;12.10;99.90
13354;DHT22;6746;50.892;4.064;2023-04-24T09:04:49;11.90;99.90
13354;DHT22;6746;50.892;4.064;2023-04-24T09:07:27;11.80;99.90
13354;DHT22;6746;50.892;4.064;2023-04-24T09:09:58;11.80;99.90
13354;DHT22;6746;50.892;4.064;2023-04-24T09:12:26;12.00;99.90
13354;DHT22;6746;50.892;4.064;2023-04-24T09:14:58;12.20;99.90
13354;DHT22;6746;50.892;4.064;2023-04-24T09:17:26;12.70;99.90
13354;DHT22;6746;50.892;4.064;2023-04-24T09:20:14;13.00;99.90
13354;DHT22;6746;50.892;4.064;2023-04-24T09:22:53;13.00;99.90
13354;DHT22;6746;50.892;4.064;2023-04-24T09:25:19;12.50;99.90
13354;DHT22;6746;50.892;4.064;2023-04-24T09:27:59;12.10;99.90
13354;DHT22;6746;50.892;4.064;2023-04-24T09:30:35;11.90;99.90
13354;DHT22;6746;50.892;4.064;2023-04-24T09:33:13;11.70;99.90
13354;DHT22;6746;50.892;4.064;2023-04-24T09:36:01;11.60;99.90
13354;DHT22;6746;50.892;4.064;2023-04-24T09:38:48;11.60;99.90
13354;DHT22;6746;50.892;4.064;2023-04-24T09:41:17;11.90;99.90
13354;DHT22;6746;50.892;4.064;2023-04-24T09:43:45;12.00;99.90
13354;DHT22;6746;50.892;4.064;2023-04-24T09:46:29;12.10;99.90
13354;DHT22;6746;50.892;4.064;2023-04-24T09:49:08;12.00;99.90
13354;DHT22;6746;50.892;4.064;2023-04-24T09:51:48;11.90;99.90
13354;DHT22;6746;50.892;4.064;2023-04-24T09:54:26;11.90;99.90
13354;DHT22;6746;50.892;4.064;2023-04-24T09:57:05;11.90;99.90
13354;DHT22;6746;50.892;4.064;2023-04-24T09:59:45;11.80;99.90
13354;DHT22;6746;50.892;4.064;2023-04-24T10:02:18;11.80;99.90
13354;DHT22;6746;50.892;4.064;2023-04-24T10:04:56;12.10;99.90
13354;DHT22;6746;50.892;4.064;2023-04-24T10:07:29;12.60;99.90
13354;DHT22;6746;50.892;4.064;2023-04-24T10:10:01;13.10;99.90
13354;DHT22;6746;50.892;4.064;2023-04-24T10:12:39;13.30;99.90
13354;DHT22;6746;50.892;4.064;2023-04-24T10:15:10;13.80;99.90
13354;DHT22;6746;50.892;4.064;2023-04-24T10:17:38;14.00;99.90
13354;DHT22;6746;50.892;4.064;2023-04-24T10:20:07;13.80;99.90
13354;DHT22;6746;50.892;4.064;2023-04-24T10:22:35;13.70;99.90
13354;DHT22;6746;50.892;4.064;2023-04-24T10:25:04;13.40;99.90
13354;DHT22;6746;50.892;4.064;2023-04-24T10:27:42;13.00;99.90
13354;DHT22;6746;50.892;4.064;2023-04-24T10:30:16;12.90;99.90
13354;DHT22;6746;50.892;4.064;2023-04-24T10:32:44;12.50;99.90
13354;DHT22;6746;50.892;4.064;2023-04-24T10:35:22;12.60;99.90
13354;DHT22;6746;50.892;4.064;2023-04-24T10:38:05;12.60;99.90
13354;DHT22;6746;50.892;4.064;2023-04-24T10:40:44;12.90;99.90
13354;DHT22;6746;50.892;4.064;2023-04-24T10:43:13;12.90;99.90
13354;DHT22;6746;50.892;4.064;2023-04-24T10:45:41;12.90;99.90
13354;DHT22;6746;50.892;4.064;2023-04-24T10:48:14;13.20;99.90
13354;DHT22;6746;50.892;4.064;2023-04-24T10:50:45;13.20;99.90
13354;DHT22;6746;50.892;4.064;2023-04-24T10:53:16;13.40;99.90
13354;DHT22;6746;50.892;4.064;2023-04-24T10:55:47;13.40;99.90
13354;DHT22;6746;50.892;4.064;2023-04-24T10:58:37;13.40;99.90
13354;DHT22;6746;50.892;4.064;2023-04-24T11:01:23;13.40;99.90
13354;DHT22;6746;50.892;4.064;2023-04-24T11:03:57;13.30;99.90
13354;DHT22;6746;50.892;4.064;2023-04-24T11:06:31;13.30;99.90
13354;DHT22;6746;50.892;4.064;2023-04-24T11:09:04;13.30;99.90
13354;DHT22;6746;50.892;4.064;2023-04-24T11:11:44;13.60;99.90
13354;DHT22;6746;50.892;4.064;2023-04-24T11:14:15;13.70;99.90
13354;DHT22;6746;50.892;4.064;2023-04-24T11:16:54;13.60;99.90
13354;DHT22;6746;50.892;4.064;2023-04-24T11:19:30;13.70;99.90
13354;DHT22;6746;50.892;4.064;2023-04-24T11:22:00;13.60;99.90
13354;DHT22;6746;50.892;4.064;2023-04-24T11:27:16;13.60;99.90
13354;DHT22;6746;50.892;4.064;2023-04-24T11:35:03;13.80;99.90
13354;DHT22;6746;50.892;4.064;2023-04-24T11:37:38;13.80;99.90
13354;DHT22;6746;50.892;4.064;2023-04-24T11:40:16;13.90;99.90
13354;DHT22;6746;50.892;4.064;2023-04-24T11:42:54;14.00;99.90
13354;DHT22;6746;50.892;4.064;2023-04-24T11:45:32;14.00;99.90
13354;DHT22;6746;50.892;4.064;2023-04-24T11:48:04;14.40;99.90
13354;DHT22;6746;50.892;4.064;2023-04-24T11:50:33;14.40;99.90
13354;DHT22;6746;50.892;4.064;2023-04-24T11:53:07;14.20;99.90
13354;DHT22;6746;50.892;4.064;2023-04-24T11:55:36;14.20;99.90
13354;DHT22;6746;50.892;4.064;2023-04-24T11:58:05;14.20;99.90
13354;DHT22;6746;50.892;4.064;2023-04-24T12:00:34;14.40;99.90
13354;DHT22;6746;50.892;4.064;2023-04-24T12:03:09;14.10;99.90
13354;DHT22;6746;50.892;4.064;2023-04-24T12:05:38;14.10;99.90
13354;DHT22;6746;50.892;4.064;2023-04-24T12:08:28;14.10;99.90
13354;DHT22;6746;50.892;4.064;2023-04-24T12:11:06;14.00;99.90
13354;DHT22;6746;50.892;4.064;2023-04-24T12:13:44;13.80;99.90
13354;DHT22;6746;50.892;4.064;2023-04-24T12:16:16;13.70;99.90
13354;DHT22;6746;50.892;4.064;2023-04-24T12:18:45;13.80;99.90
13354;DHT22;6746;50.892;4.064;2023-04-24T12:21:22;13.90;99.90
13354;DHT22;6746;50.892;4.064;2023-04-24T12:23:53;14.10;99.90
13354;DHT22;6746;50.892;4.064;2023-04-24T12:26:30;14.60;99.90
13354;DHT22;6746;50.892;4.064;2023-04-24T12:29:08;14.80;99.90
13354;DHT22;6746;50.892;4.064;2023-04-24T12:31:44;14.80;99.90
13354;DHT22;6746;50.892;4.064;2023-04-24T12:34:19;14.90;99.90
13354;DHT22;6746;50.892;4.064;2023-04-24T12:36:52;14.80;99.90
13354;DHT22;6746;50.892;4.064;2023-04-24T12:39:21;14.60;99.90
13354;DHT22;6746;50.892;4.064;2023-04-24T12:41:56;14.70;99.90
13354;DHT22;6746;50.892;4.064;2023-04-24T12:44:30;14.50;99.90
13354;DHT22;6746;50.892;4.064;2023-04-24T12:47:07;14.60;99.90
13354;DHT22;6746;50.892;4.064;2023-04-24T12:49:35;14.40;99.90
13354;DHT22;6746;50.892;4.064;2023-04-24T12:52:07;14.10;99.90
13354;DHT22;6746;50.892;4.064;2023-04-24T12:54:35;13.70;99.90
13354;DHT22;6746;50.892;4.064;2023-04-24T12:57:12;13.80;99.90
13354;DHT22;6746;50.892;4.064;2023-04-24T12:59:40;14.10;99.90
13354;DHT22;6746;50.892;4.064;2023-04-24T13:02:09;14.40;99.90
13354;DHT22;6746;50.892;4.064;2023-04-24T13:04:37;14.60;99.90
13354;DHT22;6746;50.892;4.064;2023-04-24T13:07:16;14.80;99.90
13354;DHT22;6746;50.892;4.064;2023-04-24T13:09:47;14.50;99.90
13354;DHT22;6746;50.892;4.064;2023-04-24T13:12:15;13.90;99.90
13354;DHT22;6746;50.892;4.064;2023-04-24T13:14:44;13.70;99.90
13354;DHT22;6746;50.892;4.064;2023-04-24T13:17:13;13.90;99.90
13354;DHT22;6746;50.892;4.064;2023-04-24T13:19:53;13.90;99.90
13354;DHT22;6746;50.892;4.064;2023-04-24T13:22:30;13.60;99.90
13354;DHT22;6746;50.892;4.064;2023-04-24T13:25:08;13.60;99.90
13354;DHT22;6746;50.892;4.064;2023-04-24T13:27:46;13.90;99.90
13354;DHT22;6746;50.892;4.064;2023-04-24T13:30:33;13.80;99.90
13354;DHT22;6746;50.892;4.064;2023-04-24T13:33:11;13.70;99.90
13354;DHT22;6746;50.892;4.064;2023-04-24T13:35:48;13.40;99.90
13354;DHT22;6746;50.892;4.064;2023-04-24T13:38:16;13.50;99.90
13354;DHT22;6746;50.892;4.064;2023-04-24T13:40:45;13.70;99.90
13354;DHT22;6746;50.892;4.064;2023-04-24T13:43:13;13.90;99.90
13354;DHT22;6746;50.892;4.064;2023-04-24T13:45:45;14.00;99.90
13354;DHT22;6746;50.892;4.064;2023-04-24T13:48:13;14.10;99.90
13354;DHT22;6746;50.892;4.064;2023-04-24T13:50:45;14.00;99.90
13354;DHT22;6746;50.892;4.064;2023-04-24T13:53:14;14.00;99.90
13354;DHT22;6746;50.892;4.064;2023-04-24T13:55:48;14.10;99.90
13354;DHT22;6746;50.892;4.064;2023-04-24T13:58:17;14.20;99.90
13354;DHT22;6746;50.892;4.064;2023-04-24T14:00:49;14.40;99.90
13354;DHT22;6746;50.892;4.064;2023-04-24T14:03:18;14.40;99.90
13354;DHT22;6746;50.892;4.064;2023-04-24T14:05:47;14.60;99.90
13354;DHT22;6746;50.892;4.064;2023-04-24T14:08:16;14.70;99.90
13354;DHT22;6746;50.892;4.064;2023-04-24T14:10:55;14.80;99.90
13354;DHT22;6746;50.892;4.064;2023-04-24T14:13:33;14.80;99.90
13354;DHT22;6746;50.892;4.064;2023-04-24T14:16:01;14.10;99.90
13354;DHT22;6746;50.892;4.064;2023-04-24T14:18:30;13.90;99.90
13354;DHT22;6746;50.892;4.064;2023-04-24T14:21:02;13.70;99.90
13354;DHT22;6746;50.892;4.064;2023-04-24T14:23:31;13.90;99.90
13354;DHT22;6746;50.892;4.064;2023-04-24T14:26:05;14.00;99.90
13354;DHT22;6746;50.892;4.064;2023-04-24T14:28:34;14.00;99.90
13354;DHT22;6746;50.892;4.064;2023-04-24T14:31:03;14.20;99.90
13354;DHT22;6746;50.892;4.064;2023-04-24T14:33:32;14.10;99.90
13354;DHT22;6746;50.892;4.064;2023-04-24T14:36:10;14.20;99.90
13354;DHT22;6746;50.892;4.064;2023-04-24T14:38:49;14.40;99.90
13354;DHT22;6746;50.892;4.064;2023-04-24T14:41:27;14.20;99.90
13354;DHT22;6746;50.892;4.064;2023-04-24T14:44:05;14.10;99.90
13354;DHT22;6746;50.892;4.064;2023-04-24T14:46:43;14.30;99.90
13354;DHT22;6746;50.892;4.064;2023-04-24T14:49:22;14.40;99.90
13354;DHT22;6746;50.892;4.064;2023-04-24T14:51:51;14.30;99.90
13354;DHT22;6746;50.892;4.064;2023-04-24T14:54:19;13.70;99.90
13354;DHT22;6746;50.892;4.064;2023-04-24T14:56:57;13.50;99.90
13354;DHT22;6746;50.892;4.064;2023-04-24T14:59:35;13.50;99.90
13354;DHT22;6746;50.892;4.064;2023-04-24T15:02:07;13.70;99.90
13354;DHT22;6746;50.892;4.064;2023-04-24T15:04:35;13.90;99.90
13354;DHT22;6746;50.892;4.064;2023-04-24T15:07:12;14.10;99.90
13354;DHT22;6746;50.892;4.064;2023-04-24T15:09:40;13.90;99.90
13354;DHT22;6746;50.892;4.064;2023-04-24T15:12:17;14.00;99.90
13354;DHT22;6746;50.892;4.064;2023-04-24T15:14:45;14.20;99.90
13354;DHT22;6746;50.892;4.064;2023-04-24T15:17:24;14.20;99.90
13354;DHT22;6746;50.892;4.064;2023-04-24T15:20:12;13.90;99.90
13354;DHT22;6746;50.892;4.064;2023-04-24T15:22:51;13.90;99.90
13354;DHT22;6746;50.892;4.064;2023-04-24T15:25:27;13.90;99.90
13354;DHT22;6746;50.892;4.064;2023-04-24T15:27:56;13.60;99.90
13354;DHT22;6746;50.892;4.064;2023-04-24T15:30:24;13.30;99.90
13354;DHT22;6746;50.892;4.064;2023-04-24T15:32:52;13.50;99.90
13354;DHT22;6746;50.892;4.064;2023-04-24T15:35:31;13.40;99.90
13354;DHT22;6746;50.892;4.064;2023-04-24T15:38:09;13.40;99.90
13354;DHT22;6746;50.892;4.064;2023-04-24T15:40:47;13.40;99.90
13354;DHT22;6746;50.892;4.064;2023-04-24T15:43:25;13.40;99.90
13354;DHT22;6746;50.892;4.064;2023-04-24T15:46:07;13.30;99.90
13354;DHT22;6746;50.892;4.064;2023-04-24T15:48:35;13.10;99.90
13354;DHT22;6746;50.892;4.064;2023-04-24T15:51:13;13.00;99.90
13354;DHT22;6746;50.892;4.064;2023-04-24T15:53:42;12.90;99.90
13354;DHT22;6746;50.892;4.064;2023-04-24T15:56:10;12.90;99.90
13354;DHT22;6746;50.892;4.064;2023-04-24T15:58:41;13.10;99.90
13354;DHT22;6746;50.892;4.064;2023-04-24T16:01:10;13.10;99.90
13354;DHT22;6746;50.892;4.064;2023-04-24T16:03:38;12.90;99.90
13354;DHT22;6746;50.892;4.064;2023-04-24T16:06:06;12.70;99.90
13354;DHT22;6746;50.892;4.064;2023-04-24T16:08:45;12.70;99.90
13354;DHT22;6746;50.892;4.064;2023-04-24T16:11:16;12.80;99.90
13354;DHT22;6746;50.892;4.064;2023-04-24T16:13:44;12.80;99.90
13354;DHT22;6746;50.892;4.064;2023-04-24T16:16:13;12.70;99.90
13354;DHT22;6746;50.892;4.064;2023-04-24T16:18:41;12.60;99.90
13354;DHT22;6746;50.892;4.064;2023-04-24T16:21:15;12.40;99.90
13354;DHT22;6746;50.892;4.064;2023-04-24T16:23:44;12.60;99.90
13354;DHT22;6746;50.892;4.064;2023-04-24T16:26:15;12.60;99.90
13354;DHT22;6746;50.892;4.064;2023-04-24T16:28:43;12.50;99.90
13354;DHT22;6746;50.892;4.064;2023-04-24T16:31:21;12.50;99.90
13354;DHT22;6746;50.892;4.064;2023-04-24T16:33:59;12.70;99.90
13354;DHT22;6746;50.892;4.064;2023-04-24T16:36:37;12.70;99.90
13354;DHT22;6746;50.892;4.064;2023-04-24T16:39:08;12.90;99.90
13354;DHT22;6746;50.892;4.064;2023-04-24T16:41:37;12.90;99.90
13354;DHT22;6746;50.892;4.064;2023-04-24T16:44:05;13.00;99.90
13354;DHT22;6746;50.892;4.064;2023-04-24T16:46:33;12.90;99.90
13354;DHT22;6746;50.892;4.064;2023-04-24T16:49:05;12.90;99.90
13354;DHT22;6746;50.892;4.064;2023-04-24T16:51:33;13.00;99.90
13354;DHT22;6746;50.892;4.064;2023-04-24T16:54:11;12.80;99.90
13354;DHT22;6746;50.892;4.064;2023-04-24T16:56:44;12.70;99.90
13354;DHT22;6746;50.892;4.064;2023-04-24T16:59:13;12.70;99.90